sensor_id;sensor_type;location;lat;lon;timestamp;temperature;humidity
13223;DHT22;6676;45.192;5.722;2022-12-29T00:00:31;5.40;99.90
13223;DHT22;6676;45.192;5.722;2022-12-29T00:03:23;5.40;99.90
13223;DHT22;6676;45.192;5.722;2022-12-29T00:06:17;5.40;99.90
13223;DHT22;6676;45.192;5.722;2022-12-29T00:09:11;5.40;99.90
13223;DHT22;6676;45.192;5.722;2022-12-29T00:12:06;5.50;99.90
13223;DHT22;6676;45.192;5.722;2022-12-29T00:15:00;5.50;99.90
13223;DHT22;6676;45.192;5.722;2022-12-29T00:18:10;5.40;99.90
13223;DHT22;6676;45.192;5.722;2022-12-29T00:21:05;5.30;99.90
13223;DHT22;6676;45.192;5.722;2022-12-29T00:24:17;5.30;99.90
13223;DHT22;6676;45.192;5.722;2022-12-29T00:27:27;5.30;99.90
13223;DHT22;6676;45.192;5.722;2022-12-29T00:30:38;5.20;99.90
13223;DHT22;6676;45.192;5.722;2022-12-29T00:33:51;5.20;99.90
13223;DHT22;6676;45.192;5.722;2022-12-29T00:37:03;5.20;99.90
13223;DHT22;6676;45.192;5.722;2022-12-29T00:39:57;5.30;99.90
13223;DHT22;6676;45.192;5.722;2022-12-29T00:43:08;5.30;99.90
13223;DHT22;6676;45.192;5.722;2022-12-29T00:46:29;5.20;99.90
13223;DHT22;6676;45.192;5.722;2022-12-29T00:49:20;5.10;99.90
13223;DHT22;6676;45.192;5.722;2022-12-29T00:52:22;5.10;99.90
13223;DHT22;6676;45.192;5.722;2022-12-29T00:55:21;5.10;99.90
13223;DHT22;6676;45.192;5.722;2022-12-29T00:58:14;5.00;99.90
13223;DHT22;6676;45.192;5.722;2022-12-29T01:01:07;5.00;99.90
13223;DHT22;6676;45.192;5.722;2022-12-29T01:04:00;5.00;99.90
13223;DHT22;6676;45.192;5.722;2022-12-29T01:06:53;5.00;99.90
13223;DHT22;6676;45.192;5.722;2022-12-29T01:09:44;5.10;99.90
13223;DHT22;6676;45.192;5.722;2022-12-29T01:15:53;5.00;99.90
13223;DHT22;6676;45.192;5.722;2022-12-29T01:18:45;5.00;99.90
13223;DHT22;6676;45.192;5.722;2022-12-29T01:21:36;5.00;99.90
13223;DHT22;6676;45.192;5.722;2022-12-29T01:24:28;4.90;99.90
13223;DHT22;6676;45.192;5.722;2022-12-29T01:27:19;5.00;99.90
13223;DHT22;6676;45.192;5.722;2022-12-29T01:30:12;5.10;99.90
13223;DHT22;6676;45.192;5.722;2022-12-29T01:33:04;5.10;99.90
13223;DHT22;6676;45.192;5.722;2022-12-29T01:35:57;5.00;99.90
13223;DHT22;6676;45.192;5.722;2022-12-29T01:38:49;5.00;99.90
13223;DHT22;6676;45.192;5.722;2022-12-29T01:41:42;5.10;99.90
13223;DHT22;6676;45.192;5.722;2022-12-29T01:44:52;5.10;99.90
13223;DHT22;6676;45.192;5.722;2022-12-29T01:47:46;5.10;99.90
13223;DHT22;6676;45.192;5.722;2022-12-29T01:50:39;5.00;99.90
13223;DHT22;6676;45.192;5.722;2022-12-29T01:53:33;5.10;99.90
13223;DHT22;6676;45.192;5.722;2022-12-29T01:56:26;5.10;99.90
13223;DHT22;6676;45.192;5.722;2022-12-29T01:59:20;5.10;99.90
13223;DHT22;6676;45.192;5.722;2022-12-29T02:02:11;5.10;99.90
13223;DHT22;6676;45.192;5.722;2022-12-29T02:05:07;5.10;99.90
13223;DHT22;6676;45.192;5.722;2022-12-29T02:07:58;5.00;99.90
13223;DHT22;6676;45.192;5.722;2022-12-29T02:10:50;5.00;99.90
13223;DHT22;6676;45.192;5.722;2022-12-29T02:13:44;5.00;99.90
13223;DHT22;6676;45.192;5.722;2022-12-29T02:16:43;5.00;99.90
13223;DHT22;6676;45.192;5.722;2022-12-29T02:19:54;5.00;99.90
13223;DHT22;6676;45.192;5.722;2022-12-29T02:22:50;5.00;99.90
13223;DHT22;6676;45.192;5.722;2022-12-29T02:26:03;5.00;99.90
13223;DHT22;6676;45.192;5.722;2022-12-29T02:29:17;5.00;99.90
13223;DHT22;6676;45.192;5.722;2022-12-29T02:32:11;5.00;99.90
13223;DHT22;6676;45.192;5.722;2022-12-29T02:37:53;5.10;99.90
13223;DHT22;6676;45.192;5.722;2022-12-29T02:40:46;5.20;99.90
13223;DHT22;6676;45.192;5.722;2022-12-29T02:43:43;5.20;99.90
13223;DHT22;6676;45.192;5.722;2022-12-29T02:46:37;5.30;99.90
13223;DHT22;6676;45.192;5.722;2022-12-29T02:49:32;5.30;99.90
13223;DHT22;6676;45.192;5.722;2022-12-29T02:52:27;5.40;99.90
13223;DHT22;6676;45.192;5.722;2022-12-29T02:55:18;5.40;99.90
13223;DHT22;6676;45.192;5.722;2022-12-29T02:58:19;5.40;99.90
13223;DHT22;6676;45.192;5.722;2022-12-29T03:01:29;5.40;99.90
13223;DHT22;6676;45.192;5.722;2022-12-29T03:04:26;5.30;99.90
13223;DHT22;6676;45.192;5.722;2022-12-29T03:07:20;5.40;99.90
13223;DHT22;6676;45.192;5.722;2022-12-29T03:10:22;5.30;99.90
13223;DHT22;6676;45.192;5.722;2022-12-29T03:13:18;5.20;99.90
13223;DHT22;6676;45.192;5.722;2022-12-29T03:16:29;5.20;99.90
13223;DHT22;6676;45.192;5.722;2022-12-29T03:19:24;5.10;99.90
13223;DHT22;6676;45.192;5.722;2022-12-29T03:22:19;5.10;99.90
13223;DHT22;6676;45.192;5.722;2022-12-29T03:25:25;5.20;99.90
13223;DHT22;6676;45.192;5.722;2022-12-29T03:28:22;5.20;99.90
13223;DHT22;6676;45.192;5.722;2022-12-29T03:31:14;5.20;99.90
13223;DHT22;6676;45.192;5.722;2022-12-29T03:34:06;5.30;99.90
13223;DHT22;6676;45.192;5.722;2022-12-29T03:39:40;5.30;99.90
13223;DHT22;6676;45.192;5.722;2022-12-29T03:42:34;5.30;99.90
13223;DHT22;6676;45.192;5.722;2022-12-29T03:45:26;5.30;99.90
13223;DHT22;6676;45.192;5.722;2022-12-29T03:48:19;5.30;99.90
13223;DHT22;6676;45.192;5.722;2022-12-29T03:51:11;5.30;99.90
13223;DHT22;6676;45.192;5.722;2022-12-29T03:54:03;5.40;99.90
13223;DHT22;6676;45.192;5.722;2022-12-29T03:56:55;5.40;99.90
13223;DHT22;6676;45.192;5.722;2022-12-29T03:59:48;5.40;99.90
13223;DHT22;6676;45.192;5.722;2022-12-29T04:02:40;5.40;99.90
13223;DHT22;6676;45.192;5.722;2022-12-29T04:05:33;5.40;99.90
13223;DHT22;6676;45.192;5.722;2022-12-29T04:08:25;5.50;99.90
13223;DHT22;6676;45.192;5.722;2022-12-29T04:11:17;5.50;99.90
13223;DHT22;6676;45.192;5.722;2022-12-29T04:14:08;5.50;99.90
13223;DHT22;6676;45.192;5.722;2022-12-29T04:17:00;5.50;99.90
13223;DHT22;6676;45.192;5.722;2022-12-29T04:19:52;5.50;99.90
13223;DHT22;6676;45.192;5.722;2022-12-29T04:22:45;5.50;99.90
13223;DHT22;6676;45.192;5.722;2022-12-29T04:25:37;5.50;99.90
13223;DHT22;6676;45.192;5.722;2022-12-29T04:28:30;5.50;99.90
13223;DHT22;6676;45.192;5.722;2022-12-29T04:31:26;5.50;99.90
13223;DHT22;6676;45.192;5.722;2022-12-29T04:34:18;5.60;99.90
13223;DHT22;6676;45.192;5.722;2022-12-29T04:37:10;5.60;99.90
13223;DHT22;6676;45.192;5.722;2022-12-29T04:40:01;5.60;99.90
13223;DHT22;6676;45.192;5.722;2022-12-29T04:42:52;5.60;99.90
13223;DHT22;6676;45.192;5.722;2022-12-29T04:45:45;5.70;99.90
13223;DHT22;6676;45.192;5.722;2022-12-29T04:48:38;5.80;99.90
13223;DHT22;6676;45.192;5.722;2022-12-29T04:51:34;5.80;99.90
13223;DHT22;6676;45.192;5.722;2022-12-29T04:54:28;5.80;99.90
13223;DHT22;6676;45.192;5.722;2022-12-29T04:57:30;5.80;99.90
13223;DHT22;6676;45.192;5.722;2022-12-29T05:00:22;5.80;99.90
13223;DHT22;6676;45.192;5.722;2022-12-29T05:03:14;5.80;99.90
13223;DHT22;6676;45.192;5.722;2022-12-29T05:06:08;5.90;99.90
13223;DHT22;6676;45.192;5.722;2022-12-29T05:08:59;5.90;99.90
13223;DHT22;6676;45.192;5.722;2022-12-29T05:11:51;5.90;99.90
13223;DHT22;6676;45.192;5.722;2022-12-29T05:14:42;6.00;99.90
13223;DHT22;6676;45.192;5.722;2022-12-29T05:17:34;6.00;99.90
13223;DHT22;6676;45.192;5.722;2022-12-29T05:20:26;6.00;99.90
13223;DHT22;6676;45.192;5.722;2022-12-29T05:23:18;6.00;99.90
13223;DHT22;6676;45.192;5.722;2022-12-29T05:26:17;6.00;99.90
13223;DHT22;6676;45.192;5.722;2022-12-29T05:29:10;6.00;99.90
13223;DHT22;6676;45.192;5.722;2022-12-29T05:32:05;6.00;99.90
13223;DHT22;6676;45.192;5.722;2022-12-29T05:34:56;6.10;99.90
13223;DHT22;6676;45.192;5.722;2022-12-29T05:37:48;6.00;99.90
13223;DHT22;6676;45.192;5.722;2022-12-29T05:40:40;6.00;99.90
13223;DHT22;6676;45.192;5.722;2022-12-29T05:43:35;6.00;99.90
13223;DHT22;6676;45.192;5.722;2022-12-29T05:46:46;6.00;99.90
13223;DHT22;6676;45.192;5.722;2022-12-29T05:49:42;6.00;99.90
13223;DHT22;6676;45.192;5.722;2022-12-29T05:52:43;6.00;99.90
13223;DHT22;6676;45.192;5.722;2022-12-29T05:55:35;6.00;99.90
13223;DHT22;6676;45.192;5.722;2022-12-29T05:58:32;6.10;99.90
13223;DHT22;6676;45.192;5.722;2022-12-29T06:01:26;6.10;99.90
13223;DHT22;6676;45.192;5.722;2022-12-29T06:04:21;6.20;99.90
13223;DHT22;6676;45.192;5.722;2022-12-29T06:07:15;6.20;99.90
13223;DHT22;6676;45.192;5.722;2022-12-29T06:10:10;6.20;99.90
13223;DHT22;6676;45.192;5.722;2022-12-29T06:13:07;6.20;99.90
13223;DHT22;6676;45.192;5.722;2022-12-29T06:16:00;6.20;99.90
13223;DHT22;6676;45.192;5.722;2022-12-29T06:18:56;6.20;99.90
13223;DHT22;6676;45.192;5.722;2022-12-29T06:21:48;6.20;99.90
13223;DHT22;6676;45.192;5.722;2022-12-29T06:24:42;6.30;99.90
13223;DHT22;6676;45.192;5.722;2022-12-29T06:27:38;6.30;99.90
13223;DHT22;6676;45.192;5.722;2022-12-29T06:30:32;6.30;99.90
13223;DHT22;6676;45.192;5.722;2022-12-29T06:33:27;6.30;99.90
13223;DHT22;6676;45.192;5.722;2022-12-29T06:36:19;6.30;99.90
13223;DHT22;6676;45.192;5.722;2022-12-29T06:39:13;6.30;99.90
13223;DHT22;6676;45.192;5.722;2022-12-29T06:42:09;6.30;99.90
13223;DHT22;6676;45.192;5.722;2022-12-29T06:45:05;6.30;99.90
13223;DHT22;6676;45.192;5.722;2022-12-29T06:47:59;6.40;99.90
13223;DHT22;6676;45.192;5.722;2022-12-29T06:50:52;6.40;99.90
13223;DHT22;6676;45.192;5.722;2022-12-29T06:53:46;6.40;99.90
13223;DHT22;6676;45.192;5.722;2022-12-29T06:56:41;6.50;99.90
13223;DHT22;6676;45.192;5.722;2022-12-29T06:59:35;6.50;99.90
13223;DHT22;6676;45.192;5.722;2022-12-29T07:02:30;6.60;99.90
13223;DHT22;6676;45.192;5.722;2022-12-29T07:05:24;6.50;99.90
13223;DHT22;6676;45.192;5.722;2022-12-29T07:08:18;6.50;99.90
13223;DHT22;6676;45.192;5.722;2022-12-29T07:11:11;6.50;99.90
13223;DHT22;6676;45.192;5.722;2022-12-29T07:14:06;6.50;99.90
13223;DHT22;6676;45.192;5.722;2022-12-29T07:17:02;6.50;99.90
13223;DHT22;6676;45.192;5.722;2022-12-29T07:19:55;6.50;99.90
13223;DHT22;6676;45.192;5.722;2022-12-29T07:22:49;6.40;99.90
13223;DHT22;6676;45.192;5.722;2022-12-29T07:25:42;6.40;99.90
13223;DHT22;6676;45.192;5.722;2022-12-29T07:34:21;6.30;99.90
13223;DHT22;6676;45.192;5.722;2022-12-29T07:37:14;6.30;99.90
13223;DHT22;6676;45.192;5.722;2022-12-29T07:40:09;6.30;99.90
13223;DHT22;6676;45.192;5.722;2022-12-29T07:43:00;6.40;99.90
13223;DHT22;6676;45.192;5.722;2022-12-29T07:45:54;6.30;99.90
13223;DHT22;6676;45.192;5.722;2022-12-29T07:48:45;6.40;99.90
13223;DHT22;6676;45.192;5.722;2022-12-29T07:51:37;6.50;99.90
13223;DHT22;6676;45.192;5.722;2022-12-29T07:54:29;6.60;99.90
13223;DHT22;6676;45.192;5.722;2022-12-29T07:57:23;6.60;99.90
13223;DHT22;6676;45.192;5.722;2022-12-29T08:00:17;6.70;99.90
13223;DHT22;6676;45.192;5.722;2022-12-29T08:03:08;6.70;99.90
13223;DHT22;6676;45.192;5.722;2022-12-29T08:06:00;6.70;99.90
13223;DHT22;6676;45.192;5.722;2022-12-29T08:08:52;6.70;99.90
13223;DHT22;6676;45.192;5.722;2022-12-29T08:11:43;6.80;99.90
13223;DHT22;6676;45.192;5.722;2022-12-29T08:14:35;6.80;99.90
13223;DHT22;6676;45.192;5.722;2022-12-29T08:17:26;6.90;99.90
13223;DHT22;6676;45.192;5.722;2022-12-29T08:20:18;7.00;99.90
13223;DHT22;6676;45.192;5.722;2022-12-29T08:23:09;7.10;99.90
13223;DHT22;6676;45.192;5.722;2022-12-29T08:26:02;7.30;99.90
13223;DHT22;6676;45.192;5.722;2022-12-29T08:28:54;7.30;99.90
13223;DHT22;6676;45.192;5.722;2022-12-29T08:31:46;7.40;99.90
13223;DHT22;6676;45.192;5.722;2022-12-29T08:34:37;7.50;99.90
13223;DHT22;6676;45.192;5.722;2022-12-29T08:37:30;7.50;99.90
13223;DHT22;6676;45.192;5.722;2022-12-29T08:40:22;7.60;99.90
13223;DHT22;6676;45.192;5.722;2022-12-29T08:43:14;7.70;99.90
13223;DHT22;6676;45.192;5.722;2022-12-29T08:46:07;7.80;99.90
13223;DHT22;6676;45.192;5.722;2022-12-29T08:48:59;7.80;99.90
13223;DHT22;6676;45.192;5.722;2022-12-29T08:51:50;7.90;99.90
13223;DHT22;6676;45.192;5.722;2022-12-29T08:54:41;8.00;99.90
13223;DHT22;6676;45.192;5.722;2022-12-29T08:57:33;8.10;99.90
13223;DHT22;6676;45.192;5.722;2022-12-29T09:00:26;8.00;99.90
13223;DHT22;6676;45.192;5.722;2022-12-29T09:03:17;8.00;99.90
13223;DHT22;6676;45.192;5.722;2022-12-29T09:06:11;8.00;99.90
13223;DHT22;6676;45.192;5.722;2022-12-29T09:09:02;8.00;99.90
13223;DHT22;6676;45.192;5.722;2022-12-29T09:11:54;7.90;99.90
13223;DHT22;6676;45.192;5.722;2022-12-29T09:14:46;7.90;99.90
13223;DHT22;6676;45.192;5.722;2022-12-29T09:17:38;7.90;99.90
13223;DHT22;6676;45.192;5.722;2022-12-29T09:20:36;7.90;99.90
13223;DHT22;6676;45.192;5.722;2022-12-29T09:26:50;7.80;99.90
13223;DHT22;6676;45.192;5.722;2022-12-29T09:29:42;7.80;99.90
13223;DHT22;6676;45.192;5.722;2022-12-29T09:32:33;7.80;99.90
13223;DHT22;6676;45.192;5.722;2022-12-29T09:35:26;7.80;99.90
13223;DHT22;6676;45.192;5.722;2022-12-29T09:38:17;7.80;99.90
13223;DHT22;6676;45.192;5.722;2022-12-29T09:41:13;7.80;99.90
13223;DHT22;6676;45.192;5.722;2022-12-29T09:44:15;7.80;99.90
13223;DHT22;6676;45.192;5.722;2022-12-29T09:47:13;8.00;99.90
13223;DHT22;6676;45.192;5.722;2022-12-29T09:50:09;8.00;99.90
13223;DHT22;6676;45.192;5.722;2022-12-29T09:53:05;8.10;99.90
13223;DHT22;6676;45.192;5.722;2022-12-29T09:55:58;8.30;99.90
13223;DHT22;6676;45.192;5.722;2022-12-29T09:58:54;8.30;99.90
13223;DHT22;6676;45.192;5.722;2022-12-29T10:01:47;8.40;99.90
13223;DHT22;6676;45.192;5.722;2022-12-29T10:04:41;8.40;99.90
13223;DHT22;6676;45.192;5.722;2022-12-29T10:07:38;8.50;99.90
13223;DHT22;6676;45.192;5.722;2022-12-29T10:10:35;8.60;99.90
13223;DHT22;6676;45.192;5.722;2022-12-29T10:13:38;8.70;99.90
13223;DHT22;6676;45.192;5.722;2022-12-29T10:16:33;8.70;99.90
13223;DHT22;6676;45.192;5.722;2022-12-29T10:19:41;8.70;99.90
13223;DHT22;6676;45.192;5.722;2022-12-29T10:22:45;8.70;99.90
13223;DHT22;6676;45.192;5.722;2022-12-29T10:25:37;8.70;99.90
13223;DHT22;6676;45.192;5.722;2022-12-29T10:28:35;8.70;99.90
13223;DHT22;6676;45.192;5.722;2022-12-29T10:31:29;8.60;99.90
13223;DHT22;6676;45.192;5.722;2022-12-29T10:37:18;8.60;99.90
13223;DHT22;6676;45.192;5.722;2022-12-29T10:43:13;8.70;99.90
13223;DHT22;6676;45.192;5.722;2022-12-29T10:46:08;8.70;99.90
13223;DHT22;6676;45.192;5.722;2022-12-29T10:49:01;8.90;99.90
13223;DHT22;6676;45.192;5.722;2022-12-29T10:51:54;8.90;99.90
13223;DHT22;6676;45.192;5.722;2022-12-29T10:54:49;9.00;99.90
13223;DHT22;6676;45.192;5.722;2022-12-29T10:57:42;9.10;99.90
13223;DHT22;6676;45.192;5.722;2022-12-29T11:00:34;9.30;99.90
13223;DHT22;6676;45.192;5.722;2022-12-29T11:03:49;9.40;99.90
13223;DHT22;6676;45.192;5.722;2022-12-29T11:06:44;9.50;99.90
13223;DHT22;6676;45.192;5.722;2022-12-29T11:09:37;9.60;99.90
13223;DHT22;6676;45.192;5.722;2022-12-29T11:12:31;9.70;99.90
13223;DHT22;6676;45.192;5.722;2022-12-29T11:15:24;9.80;99.90
13223;DHT22;6676;45.192;5.722;2022-12-29T11:18:24;9.90;99.90
13223;DHT22;6676;45.192;5.722;2022-12-29T11:21:29;10.00;99.90
13223;DHT22;6676;45.192;5.722;2022-12-29T11:24:23;10.10;99.90
13223;DHT22;6676;45.192;5.722;2022-12-29T11:27:17;10.10;99.90
13223;DHT22;6676;45.192;5.722;2022-12-29T11:33:04;10.30;99.90
13223;DHT22;6676;45.192;5.722;2022-12-29T11:36:01;10.40;99.90
13223;DHT22;6676;45.192;5.722;2022-12-29T11:38:53;10.50;99.90
13223;DHT22;6676;45.192;5.722;2022-12-29T11:41:51;10.60;99.90
13223;DHT22;6676;45.192;5.722;2022-12-29T11:44:45;10.70;99.90
13223;DHT22;6676;45.192;5.722;2022-12-29T11:47:37;10.80;99.90
13223;DHT22;6676;45.192;5.722;2022-12-29T11:50:31;10.90;99.90
13223;DHT22;6676;45.192;5.722;2022-12-29T11:53:25;11.00;99.90
13223;DHT22;6676;45.192;5.722;2022-12-29T11:56:19;11.10;99.90
13223;DHT22;6676;45.192;5.722;2022-12-29T11:59:39;11.20;99.90
13223;DHT22;6676;45.192;5.722;2022-12-29T12:05:39;11.30;99.90
13223;DHT22;6676;45.192;5.722;2022-12-29T12:11:18;11.40;99.90
13223;DHT22;6676;45.192;5.722;2022-12-29T12:14:17;11.50;99.90
13223;DHT22;6676;45.192;5.722;2022-12-29T12:17:17;11.70;99.90
13223;DHT22;6676;45.192;5.722;2022-12-29T12:20:16;11.80;99.90
13223;DHT22;6676;45.192;5.722;2022-12-29T12:23:15;11.90;99.90
13223;DHT22;6676;45.192;5.722;2022-12-29T12:26:13;11.90;99.90
13223;DHT22;6676;45.192;5.722;2022-12-29T12:29:10;12.00;99.90
13223;DHT22;6676;45.192;5.722;2022-12-29T12:32:06;12.00;99.90
13223;DHT22;6676;45.192;5.722;2022-12-29T12:34:57;12.10;99.90
13223;DHT22;6676;45.192;5.722;2022-12-29T12:37:55;12.10;99.90
13223;DHT22;6676;45.192;5.722;2022-12-29T12:40:59;12.20;99.90
13223;DHT22;6676;45.192;5.722;2022-12-29T12:43:56;12.30;99.90
13223;DHT22;6676;45.192;5.722;2022-12-29T12:50:26;12.50;99.90
13223;DHT22;6676;45.192;5.722;2022-12-29T12:53:43;12.50;99.90
13223;DHT22;6676;45.192;5.722;2022-12-29T12:56:57;12.60;99.90
13223;DHT22;6676;45.192;5.722;2022-12-29T12:59:56;12.70;99.90
13223;DHT22;6676;45.192;5.722;2022-12-29T13:02:53;12.80;99.90
13223;DHT22;6676;45.192;5.722;2022-12-29T13:06:04;12.80;99.90
13223;DHT22;6676;45.192;5.722;2022-12-29T13:09:05;12.90;99.90
13223;DHT22;6676;45.192;5.722;2022-12-29T13:12:09;13.00;99.90
13223;DHT22;6676;45.192;5.722;2022-12-29T13:15:08;12.90;99.90
13223;DHT22;6676;45.192;5.722;2022-12-29T13:17:59;12.90;99.90
13223;DHT22;6676;45.192;5.722;2022-12-29T13:20:52;13.00;99.90
13223;DHT22;6676;45.192;5.722;2022-12-29T13:26:32;13.00;99.90
13223;DHT22;6676;45.192;5.722;2022-12-29T13:29:29;13.20;99.90
13223;DHT22;6676;45.192;5.722;2022-12-29T13:32:27;13.10;99.90
13223;DHT22;6676;45.192;5.722;2022-12-29T13:35:27;13.10;99.90
13223;DHT22;6676;45.192;5.722;2022-12-29T13:38:21;13.10;99.90
13223;DHT22;6676;45.192;5.722;2022-12-29T13:41:17;13.00;99.90
13223;DHT22;6676;45.192;5.722;2022-12-29T13:44:09;13.00;99.90
13223;DHT22;6676;45.192;5.722;2022-12-29T13:47:05;13.00;99.90
13223;DHT22;6676;45.192;5.722;2022-12-29T13:50:00;13.00;99.90
13223;DHT22;6676;45.192;5.722;2022-12-29T13:52:55;13.10;99.90
13223;DHT22;6676;45.192;5.722;2022-12-29T13:55:51;13.10;99.90
13223;DHT22;6676;45.192;5.722;2022-12-29T13:58:46;13.20;99.90
13223;DHT22;6676;45.192;5.722;2022-12-29T14:01:40;13.20;99.90
13223;DHT22;6676;45.192;5.722;2022-12-29T14:04:32;13.20;99.90
13223;DHT22;6676;45.192;5.722;2022-12-29T14:07:24;13.30;99.90
13223;DHT22;6676;45.192;5.722;2022-12-29T14:10:28;13.20;99.90
13223;DHT22;6676;45.192;5.722;2022-12-29T14:13:21;13.20;99.90
13223;DHT22;6676;45.192;5.722;2022-12-29T14:16:28;13.10;99.90
13223;DHT22;6676;45.192;5.722;2022-12-29T14:19:23;13.10;99.90
13223;DHT22;6676;45.192;5.722;2022-12-29T14:22:23;13.00;99.90
13223;DHT22;6676;45.192;5.722;2022-12-29T14:25:54;13.00;99.90
13223;DHT22;6676;45.192;5.722;2022-12-29T14:28:48;12.90;99.90
13223;DHT22;6676;45.192;5.722;2022-12-29T14:31:39;12.90;99.90
13223;DHT22;6676;45.192;5.722;2022-12-29T14:34:39;12.90;99.90
13223;DHT22;6676;45.192;5.722;2022-12-29T14:37:35;12.80;99.90
13223;DHT22;6676;45.192;5.722;2022-12-29T14:40:29;12.80;99.90
13223;DHT22;6676;45.192;5.722;2022-12-29T14:43:24;12.90;99.90
13223;DHT22;6676;45.192;5.722;2022-12-29T14:46:16;12.90;99.90
13223;DHT22;6676;45.192;5.722;2022-12-29T14:49:14;12.90;99.90
13223;DHT22;6676;45.192;5.722;2022-12-29T14:52:12;12.80;99.90
13223;DHT22;6676;45.192;5.722;2022-12-29T14:58:14;12.70;99.90
13223;DHT22;6676;45.192;5.722;2022-12-29T15:01:13;12.80;99.90
13223;DHT22;6676;45.192;5.722;2022-12-29T15:04:14;12.70;99.90
13223;DHT22;6676;45.192;5.722;2022-12-29T15:07:08;12.70;99.90
13223;DHT22;6676;45.192;5.722;2022-12-29T15:10:05;12.70;99.90
13223;DHT22;6676;45.192;5.722;2022-12-29T15:13:00;12.70;99.90
13223;DHT22;6676;45.192;5.722;2022-12-29T15:15:51;12.80;99.90
13223;DHT22;6676;45.192;5.722;2022-12-29T15:18:43;12.80;99.90
13223;DHT22;6676;45.192;5.722;2022-12-29T15:21:35;12.70;99.90
13223;DHT22;6676;45.192;5.722;2022-12-29T15:24:27;12.80;99.90
13223;DHT22;6676;45.192;5.722;2022-12-29T15:27:20;12.90;99.90
13223;DHT22;6676;45.192;5.722;2022-12-29T15:30:15;13.00;99.90
13223;DHT22;6676;45.192;5.722;2022-12-29T15:33:18;12.90;99.90
13223;DHT22;6676;45.192;5.722;2022-12-29T15:36:13;12.90;99.90
13223;DHT22;6676;45.192;5.722;2022-12-29T15:39:19;12.70;99.90
13223;DHT22;6676;45.192;5.722;2022-12-29T15:42:18;12.60;99.90
13223;DHT22;6676;45.192;5.722;2022-12-29T15:45:11;12.50;99.90
13223;DHT22;6676;45.192;5.722;2022-12-29T15:48:05;12.40;99.90
13223;DHT22;6676;45.192;5.722;2022-12-29T15:50:58;12.30;99.90
13223;DHT22;6676;45.192;5.722;2022-12-29T15:53:51;12.20;99.90
13223;DHT22;6676;45.192;5.722;2022-12-29T15:56:43;12.20;99.90
13223;DHT22;6676;45.192;5.722;2022-12-29T15:59:35;12.20;99.90
13223;DHT22;6676;45.192;5.722;2022-12-29T16:02:27;12.10;99.90
13223;DHT22;6676;45.192;5.722;2022-12-29T16:05:19;12.10;99.90
13223;DHT22;6676;45.192;5.722;2022-12-29T16:08:27;12.10;99.90
13223;DHT22;6676;45.192;5.722;2022-12-29T16:11:21;12.10;99.90
13223;DHT22;6676;45.192;5.722;2022-12-29T16:16:57;12.10;99.90
13223;DHT22;6676;45.192;5.722;2022-12-29T16:19:52;12.00;99.90
13223;DHT22;6676;45.192;5.722;2022-12-29T16:22:47;11.90;99.90
13223;DHT22;6676;45.192;5.722;2022-12-29T16:25:39;11.90;99.90
13223;DHT22;6676;45.192;5.722;2022-12-29T16:28:35;11.80;99.90
13223;DHT22;6676;45.192;5.722;2022-12-29T16:31:34;11.80;99.90
13223;DHT22;6676;45.192;5.722;2022-12-29T16:34:29;11.80;99.90
13223;DHT22;6676;45.192;5.722;2022-12-29T16:37:28;11.90;99.90
13223;DHT22;6676;45.192;5.722;2022-12-29T16:40:26;11.90;99.90
13223;DHT22;6676;45.192;5.722;2022-12-29T16:43:23;12.00;99.90
13223;DHT22;6676;45.192;5.722;2022-12-29T16:46:23;11.90;99.90
13223;DHT22;6676;45.192;5.722;2022-12-29T16:49:17;11.90;99.90
13223;DHT22;6676;45.192;5.722;2022-12-29T16:52:17;11.90;99.90
13223;DHT22;6676;45.192;5.722;2022-12-29T16:55:16;11.80;99.90
13223;DHT22;6676;45.192;5.722;2022-12-29T16:58:12;11.90;99.90
13223;DHT22;6676;45.192;5.722;2022-12-29T17:01:06;11.90;99.90
13223;DHT22;6676;45.192;5.722;2022-12-29T17:04:01;11.80;99.90
13223;DHT22;6676;45.192;5.722;2022-12-29T17:06:53;11.80;99.90
13223;DHT22;6676;45.192;5.722;2022-12-29T17:09:44;11.80;99.90
13223;DHT22;6676;45.192;5.722;2022-12-29T17:12:36;11.80;99.90
13223;DHT22;6676;45.192;5.722;2022-12-29T17:15:29;11.80;99.90
13223;DHT22;6676;45.192;5.722;2022-12-29T17:18:23;11.90;99.90
13223;DHT22;6676;45.192;5.722;2022-12-29T17:21:14;11.90;99.90
13223;DHT22;6676;45.192;5.722;2022-12-29T17:24:11;11.80;99.90
13223;DHT22;6676;45.192;5.722;2022-12-29T17:27:03;11.70;99.90
13223;DHT22;6676;45.192;5.722;2022-12-29T17:29:56;11.60;99.90
13223;DHT22;6676;45.192;5.722;2022-12-29T17:32:50;11.60;99.90
13223;DHT22;6676;45.192;5.722;2022-12-29T17:35:42;11.60;99.90
13223;DHT22;6676;45.192;5.722;2022-12-29T17:38:36;11.50;99.90
13223;DHT22;6676;45.192;5.722;2022-12-29T17:41:27;11.50;99.90
13223;DHT22;6676;45.192;5.722;2022-12-29T17:44:19;11.40;99.90
13223;DHT22;6676;45.192;5.722;2022-12-29T17:47:12;11.40;99.90
13223;DHT22;6676;45.192;5.722;2022-12-29T17:50:08;11.50;99.90
13223;DHT22;6676;45.192;5.722;2022-12-29T17:53:02;11.50;99.90
13223;DHT22;6676;45.192;5.722;2022-12-29T17:55:54;11.40;99.90
13223;DHT22;6676;45.192;5.722;2022-12-29T17:58:46;11.40;99.90
13223;DHT22;6676;45.192;5.722;2022-12-29T18:01:38;11.40;99.90
13223;DHT22;6676;45.192;5.722;2022-12-29T18:04:31;11.40;99.90
13223;DHT22;6676;45.192;5.722;2022-12-29T18:07:24;11.50;99.90
13223;DHT22;6676;45.192;5.722;2022-12-29T18:10:17;11.50;99.90
13223;DHT22;6676;45.192;5.722;2022-12-29T18:13:14;11.60;99.90
13223;DHT22;6676;45.192;5.722;2022-12-29T18:16:09;11.50;99.90
13223;DHT22;6676;45.192;5.722;2022-12-29T18:19:01;11.50;99.90
13223;DHT22;6676;45.192;5.722;2022-12-29T18:21:59;11.50;99.90
13223;DHT22;6676;45.192;5.722;2022-12-29T18:24:58;11.40;99.90
13223;DHT22;6676;45.192;5.722;2022-12-29T18:27:57;11.40;99.90
13223;DHT22;6676;45.192;5.722;2022-12-29T18:30:54;11.30;99.90
13223;DHT22;6676;45.192;5.722;2022-12-29T18:33:53;11.30;99.90
13223;DHT22;6676;45.192;5.722;2022-12-29T18:36:49;11.30;99.90
13223;DHT22;6676;45.192;5.722;2022-12-29T18:39:49;11.30;99.90
13223;DHT22;6676;45.192;5.722;2022-12-29T18:42:46;11.20;99.90
13223;DHT22;6676;45.192;5.722;2022-12-29T18:45:48;11.20;99.90
13223;DHT22;6676;45.192;5.722;2022-12-29T18:48:44;11.20;99.90
13223;DHT22;6676;45.192;5.722;2022-12-29T18:51:50;11.20;99.90
13223;DHT22;6676;45.192;5.722;2022-12-29T18:54:55;11.20;99.90
13223;DHT22;6676;45.192;5.722;2022-12-29T18:57:55;11.20;99.90
13223;DHT22;6676;45.192;5.722;2022-12-29T19:00:51;11.10;99.90
13223;DHT22;6676;45.192;5.722;2022-12-29T19:03:53;11.10;99.90
13223;DHT22;6676;45.192;5.722;2022-12-29T19:06:47;11.10;99.90
13223;DHT22;6676;45.192;5.722;2022-12-29T19:09:44;11.00;99.90
13223;DHT22;6676;45.192;5.722;2022-12-29T19:12:46;11.00;99.90
13223;DHT22;6676;45.192;5.722;2022-12-29T19:15:39;11.10;99.90
13223;DHT22;6676;45.192;5.722;2022-12-29T19:18:34;11.30;99.90
13223;DHT22;6676;45.192;5.722;2022-12-29T19:21:32;11.40;99.90
13223;DHT22;6676;45.192;5.722;2022-12-29T19:24:28;11.40;99.90
13223;DHT22;6676;45.192;5.722;2022-12-29T19:27:43;11.40;99.90
13223;DHT22;6676;45.192;5.722;2022-12-29T19:30:42;11.60;99.90
13223;DHT22;6676;45.192;5.722;2022-12-29T19:33:39;11.80;99.90
13223;DHT22;6676;45.192;5.722;2022-12-29T19:36:34;11.80;99.90
13223;DHT22;6676;45.192;5.722;2022-12-29T19:39:29;11.70;99.90
13223;DHT22;6676;45.192;5.722;2022-12-29T19:42:26;11.80;99.90